sensor_id;sensor_type;location;lat;lon;timestamp;P1;durP1;ratioP1;P2;durP2;ratioP2
12373;SDS011;6251;51.762;8.660;2023-08-08T01:03:42;4.93;;;4.43;;
12373;SDS011;6251;51.762;8.660;2023-08-08T01:13:43;5.47;;;4.80;;
12373;SDS011;6251;51.762;8.660;2023-08-08T02:45:12;3.80;;;3.50;;
12373;SDS011;6251;51.762;8.660;2023-08-08T02:55:13;3.60;;;3.30;;
12373;SDS011;6251;51.762;8.660;2023-08-08T04:06:16;5.12;;;4.72;;
12373;SDS011;6251;51.762;8.660;2023-08-08T04:16:17;5.47;;;4.97;;
12373;SDS011;6251;51.762;8.660;2023-08-08T04:37:01;5.35;;;4.85;;
12373;SDS011;6251;51.762;8.660;2023-08-08T04:47:01;5.87;;;4.47;;
12373;SDS011;6251;51.762;8.660;2023-08-08T04:57:05;7.53;;;5.07;;
12373;SDS011;6251;51.762;8.660;2023-08-08T05:07:09;5.10;;;4.70;;
12373;SDS011;6251;51.762;8.660;2023-08-08T05:17:10;6.78;;;4.68;;
12373;SDS011;6251;51.762;8.660;2023-08-08T05:27:10;6.40;;;4.82;;
12373;SDS011;6251;51.762;8.660;2023-08-08T05:37:11;7.18;;;5.37;;
12373;SDS011;6251;51.762;8.660;2023-08-08T05:47:12;6.78;;;5.72;;
12373;SDS011;6251;51.762;8.660;2023-08-08T05:57:12;7.07;;;5.50;;
12373;SDS011;6251;51.762;8.660;2023-08-08T06:07:13;7.50;;;6.00;;
12373;SDS011;6251;51.762;8.660;2023-08-08T06:17:14;7.72;;;6.70;;
12373;SDS011;6251;51.762;8.660;2023-08-08T06:27:14;10.05;;;7.60;;
12373;SDS011;6251;51.762;8.660;2023-08-08T06:37:15;15.98;;;9.45;;
12373;SDS011;6251;51.762;8.660;2023-08-08T06:47:16;12.77;;;10.02;;
12373;SDS011;6251;51.762;8.660;2023-08-08T06:57:16;12.05;;;10.75;;
12373;SDS011;6251;51.762;8.660;2023-08-08T07:07:17;13.17;;;11.07;;
12373;SDS011;6251;51.762;8.660;2023-08-08T07:17:17;19.25;;;12.02;;
12373;SDS011;6251;51.762;8.660;2023-08-08T07:27:18;16.42;;;11.00;;
12373;SDS011;6251;51.762;8.660;2023-08-08T07:37:19;21.00;;;13.10;;
12373;SDS011;6251;51.762;8.660;2023-08-08T07:47:19;19.52;;;12.27;;
12373;SDS011;6251;51.762;8.660;2023-08-08T07:57:20;13.57;;;11.53;;
12373;SDS011;6251;51.762;8.660;2023-08-08T08:07:20;13.40;;;11.10;;
12373;SDS011;6251;51.762;8.660;2023-08-08T08:17:21;14.13;;;12.20;;
12373;SDS011;6251;51.762;8.660;2023-08-08T08:27:22;12.10;;;10.38;;
12373;SDS011;6251;51.762;8.660;2023-08-08T08:37:22;12.77;;;10.18;;
12373;SDS011;6251;51.762;8.660;2023-08-08T08:47:23;11.40;;;8.35;;
12373;SDS011;6251;51.762;8.660;2023-08-08T08:57:38;8.10;;;7.37;;
12373;SDS011;6251;51.762;8.660;2023-08-08T09:07:39;9.55;;;8.05;;
12373;SDS011;6251;51.762;8.660;2023-08-08T09:17:44;8.50;;;6.82;;
12373;SDS011;6251;51.762;8.660;2023-08-08T09:27:45;7.82;;;6.65;;
12373;SDS011;6251;51.762;8.660;2023-08-08T09:37:47;8.55;;;6.35;;
12373;SDS011;6251;51.762;8.660;2023-08-08T09:47:48;8.90;;;6.40;;
12373;SDS011;6251;51.762;8.660;2023-08-08T09:57:54;8.90;;;6.70;;
12373;SDS011;6251;51.762;8.660;2023-08-08T10:07:56;10.63;;;6.70;;
12373;SDS011;6251;51.762;8.660;2023-08-08T10:17:58;6.12;;;5.32;;
12373;SDS011;6251;51.762;8.660;2023-08-08T10:28:04;5.50;;;5.10;;
12373;SDS011;6251;51.762;8.660;2023-08-08T10:38:10;8.02;;;5.65;;
12373;SDS011;6251;51.762;8.660;2023-08-08T10:48:11;7.43;;;5.47;;
12373;SDS011;6251;51.762;8.660;2023-08-08T10:58:13;5.68;;;5.07;;
12373;SDS011;6251;51.762;8.660;2023-08-08T11:08:19;4.93;;;4.37;;
12373;SDS011;6251;51.762;8.660;2023-08-08T11:18:22;3.58;;;3.28;;
12373;SDS011;6251;51.762;8.660;2023-08-08T11:28:22;2.95;;;2.60;;
12373;SDS011;6251;51.762;8.660;2023-08-08T11:38:23;2.85;;;2.47;;
12373;SDS011;6251;51.762;8.660;2023-08-08T11:48:24;4.22;;;2.40;;
12373;SDS011;6251;51.762;8.660;2023-08-08T11:58:25;3.65;;;2.00;;
12373;SDS011;6251;51.762;8.660;2023-08-08T12:08:29;3.33;;;2.20;;
12373;SDS011;6251;51.762;8.660;2023-08-08T12:18:31;3.67;;;2.10;;
12373;SDS011;6251;51.762;8.660;2023-08-08T12:28:32;2.95;;;2.12;;
12373;SDS011;6251;51.762;8.660;2023-08-08T12:38:33;2.55;;;2.28;;
12373;SDS011;6251;51.762;8.660;2023-08-08T12:48:34;3.28;;;2.70;;
12373;SDS011;6251;51.762;8.660;2023-08-08T12:58:35;3.78;;;2.50;;
12373;SDS011;6251;51.762;8.660;2023-08-08T13:08:35;4.85;;;2.33;;
12373;SDS011;6251;51.762;8.660;2023-08-08T13:18:36;3.33;;;2.53;;
12373;SDS011;6251;51.762;8.660;2023-08-08T13:28:38;4.03;;;2.87;;
12373;SDS011;6251;51.762;8.660;2023-08-08T13:38:39;2.70;;;2.50;;
12373;SDS011;6251;51.762;8.660;2023-08-08T13:48:40;2.55;;;2.25;;
12373;SDS011;6251;51.762;8.660;2023-08-08T13:58:40;2.08;;;1.98;;
12373;SDS011;6251;51.762;8.660;2023-08-08T14:08:41;2.45;;;1.70;;
12373;SDS011;6251;51.762;8.660;2023-08-08T14:18:41;1.85;;;1.73;;
12373;SDS011;6251;51.762;8.660;2023-08-08T14:28:42;3.40;;;2.50;;
12373;SDS011;6251;51.762;8.660;2023-08-08T14:38:42;2.60;;;2.40;;
12373;SDS011;6251;51.762;8.660;2023-08-08T14:48:43;2.20;;;2.05;;
12373;SDS011;6251;51.762;8.660;2023-08-08T14:58:44;1.60;;;1.50;;
12373;SDS011;6251;51.762;8.660;2023-08-08T15:08:44;3.80;;;1.70;;
12373;SDS011;6251;51.762;8.660;2023-08-08T15:18:45;1.60;;;1.50;;
12373;SDS011;6251;51.762;8.660;2023-08-08T15:28:48;1.73;;;1.60;;
12373;SDS011;6251;51.762;8.660;2023-08-08T15:38:49;2.08;;;1.65;;
12373;SDS011;6251;51.762;8.660;2023-08-08T15:48:50;2.10;;;1.90;;
12373;SDS011;6251;51.762;8.660;2023-08-08T15:58:50;1.58;;;1.45;;
12373;SDS011;6251;51.762;8.660;2023-08-08T16:08:51;1.40;;;1.30;;
12373;SDS011;6251;51.762;8.660;2023-08-08T16:18:52;1.90;;;1.55;;
12373;SDS011;6251;51.762;8.660;2023-08-08T16:28:53;3.20;;;1.60;;
12373;SDS011;6251;51.762;8.660;2023-08-08T16:38:53;1.80;;;1.60;;
12373;SDS011;6251;51.762;8.660;2023-08-08T16:48:54;1.58;;;1.58;;
12373;SDS011;6251;51.762;8.660;2023-08-08T16:58:55;3.45;;;1.90;;
12373;SDS011;6251;51.762;8.660;2023-08-08T17:08:56;1.98;;;1.87;;
12373;SDS011;6251;51.762;8.660;2023-08-08T17:18:56;1.90;;;1.80;;
12373;SDS011;6251;51.762;8.660;2023-08-08T17:28:57;2.28;;;1.50;;
12373;SDS011;6251;51.762;8.660;2023-08-08T17:38:58;2.58;;;1.52;;
12373;SDS011;6251;51.762;8.660;2023-08-08T17:48:58;2.15;;;1.30;;
12373;SDS011;6251;51.762;8.660;2023-08-08T17:58:59;1.15;;;1.12;;
12373;SDS011;6251;51.762;8.660;2023-08-08T18:08:59;1.73;;;1.13;;
12373;SDS011;6251;51.762;8.660;2023-08-08T18:19:00;1.60;;;1.33;;
12373;SDS011;6251;51.762;8.660;2023-08-08T18:29:01;1.50;;;1.10;;
12373;SDS011;6251;51.762;8.660;2023-08-08T18:39:02;2.30;;;1.50;;
12373;SDS011;6251;51.762;8.660;2023-08-08T18:49:03;1.10;;;1.10;;
12373;SDS011;6251;51.762;8.660;2023-08-08T18:59:03;1.30;;;1.30;;
12373;SDS011;6251;51.762;8.660;2023-08-08T19:09:04;1.12;;;1.12;;
12373;SDS011;6251;51.762;8.660;2023-08-08T19:19:08;1.40;;;1.30;;
12373;SDS011;6251;51.762;8.660;2023-08-08T19:29:09;1.40;;;1.40;;
12373;SDS011;6251;51.762;8.660;2023-08-08T19:39:09;1.30;;;1.30;;
12373;SDS011;6251;51.762;8.660;2023-08-08T19:49:10;2.20;;;1.42;;
12373;SDS011;6251;51.762;8.660;2023-08-08T19:59:10;1.30;;;1.20;;
12373;SDS011;6251;51.762;8.660;2023-08-08T20:09:11;1.27;;;1.27;;
12373;SDS011;6251;51.762;8.660;2023-08-08T20:19:11;1.30;;;1.30;;
12373;SDS011;6251;51.762;8.660;2023-08-08T20:29:12;1.10;;;1.10;;
12373;SDS011;6251;51.762;8.660;2023-08-08T20:39:13;1.75;;;1.65;;
12373;SDS011;6251;51.762;8.660;2023-08-08T20:49:14;2.25;;;2.00;;
12373;SDS011;6251;51.762;8.660;2023-08-08T20:59:15;2.70;;;2.50;;
12373;SDS011;6251;51.762;8.660;2023-08-08T23:01:23;10.15;;;9.25;;
12373;SDS011;6251;51.762;8.660;2023-08-08T23:11:23;11.43;;;10.37;;
